Time,TemperatureF,DewpointF,PressureIn,WindDirection,WindDirectionDegrees,WindSpeedMPH,WindSpeedGustMPH,Humidity,HourlyPrecipIn,Conditions,Clouds,dailyrainin,SoftwareType,DateUTC
2013-03-15 00:00:00,39.9,38.3,30.17,NNE,18,0.0,0.0,94,0.00,,---,0.00,VWS V14.01,2013-03-15 04:00:00,
2013-03-15 00:05:00,39.8,38.2,30.17,NNE,18,0.0,0.0,94,0.00,,---,0.00,VWS V14.01,2013-03-15 04:05:00,
2013-03-15 00:10:00,39.6,38.0,30.17,NNE,18,0.0,0.0,94,0.00,,---,0.00,VWS V14.01,2013-03-15 04:10:00,
2013-03-15 00:15:00,39.6,38.0,30.17,NNE,18,0.0,0.0,94,0.00,,---,0.00,VWS V14.01,2013-03-15 04:15:00,
2013-03-15 00:20:00,39.5,37.9,30.17,NNE,18,0.0,0.0,94,0.00,,---,0.00,VWS V14.01,2013-03-15 04:20:00,
2013-03-15 00:25:00,39.3,37.7,30.17,NNE,18,0.0,0.0,94,0.00,,---,0.00,VWS V14.01,2013-03-15 04:25:00,
2013-03-15 00:30:00,39.3,38.0,30.18,NNE,18,0.0,0.0,95,0.00,,---,0.00,VWS V14.01,2013-03-15 04:30:00,
2013-03-15 00:36:00,39.2,37.9,30.18,NNE,18,0.0,0.0,95,0.00,,---,0.00,VWS V14.01,2013-03-15 04:36:00,
2013-03-15 00:41:00,39.1,37.8,30.18,NNE,18,0.0,0.0,95,0.00,,---,0.00,VWS V14.01,2013-03-15 04:41:00,
2013-03-15 00:46:00,39.1,37.8,30.18,NNE,18,0.0,0.0,95,0.00,,---,0.00,VWS V14.01,2013-03-15 04:46:00,
2013-03-15 00:51:00,38.9,37.6,30.18,NNE,18,0.0,0.0,95,0.00,,---,0.00,VWS V14.01,2013-03-15 04:51:00,
2013-03-15 00:56:00,38.9,37.6,30.18,NNE,18,0.0,0.0,95,0.00,,---,0.00,VWS V14.01,2013-03-15 04:56:00,
2013-03-15 01:00:00,38.9,37.6,30.18,NNE,18,0.0,0.0,95,0.00,,---,0.00,VWS V14.01,2013-03-15 05:00:00,
2013-03-15 01:01:00,38.9,37.6,30.18,NNE,18,0.0,0.0,95,0.00,,---,0.00,VWS V14.01,2013-03-15 05:01:00,
2013-03-15 01:06:00,38.8,37.5,30.18,NNE,18,0.0,0.0,95,0.00,,---,0.00,VWS V14.01,2013-03-15 05:06:00,
2013-03-15 01:12:00,38.8,37.5,30.18,NNE,18,0.0,0.0,95,0.00,,---,0.00,VWS V14.01,2013-03-15 05:12:00,
2013-03-15 01:17:00,38.6,37.6,30.18,NNE,18,0.0,0.0,96,0.00,,---,0.00,VWS V14.01,2013-03-15 05:17:00,
2013-03-15 01:22:00,38.6,37.6,30.18,NNE,18,0.0,0.0,96,0.00,,---,0.00,VWS V14.01,2013-03-15 05:22:00,
2013-03-15 01:27:00,38.5,37.5,30.18,NNE,18,0.0,0.0,96,0.00,,---,0.00,VWS V14.01,2013-03-15 05:27:00,
2013-03-15 01:30:00,38.5,37.5,30.18,NNE,18,0.0,0.0,96,0.00,,---,0.00,VWS V14.01,2013-03-15 05:30:00,
2013-03-15 01:32:00,38.5,37.5,30.18,NNE,18,0.0,0.0,96,0.00,,---,0.00,VWS V14.01,2013-03-15 05:32:00,
2013-03-15 01:37:00,38.5,37.5,30.18,NNE,18,0.0,0.0,96,0.00,,---,0.00,VWS V14.01,2013-03-15 05:37:00,
2013-03-15 01:42:00,38.3,37.3,30.18,NNE,18,0.0,0.0,96,0.00,,---,0.00,VWS V14.01,2013-03-15 05:42:00,
2013-03-15 01:47:00,38.2,37.2,30.18,NNE,18,0.0,0.0,96,0.00,,---,0.00,VWS V14.01,2013-03-15 05:47:00,
2013-03-15 01:52:00,38.2,37.2,30.18,NNE,18,0.0,0.0,96,0.00,,---,0.00,VWS V14.01,2013-03-15 05:52:00,
2013-03-15 01:57:00,38.0,37.0,30.18,NNE,18,0.0,0.0,96,0.00,,---,0.00,VWS V14.01,2013-03-15 05:57:00,
2013-03-15 02:00:00,38.0,37.0,30.18,NNE,18,0.0,0.0,96,0.00,,---,0.00,VWS V14.01,2013-03-15 06:00:00,
2013-03-15 02:02:00,38.0,37.0,30.18,NNE,18,0.0,0.0,96,0.00,,---,0.00,VWS V14.01,2013-03-15 06:02:00,
2013-03-15 02:07:00,38.0,37.0,30.18,NNE,18,0.0,0.0,96,0.00,,---,0.00,VWS V14.01,2013-03-15 06:07:00,
2013-03-15 02:12:00,37.9,36.9,30.18,NNE,18,0.0,0.0,96,0.00,,---,0.00,VWS V14.01,2013-03-15 06:12:00,
2013-03-15 02:17:00,37.8,36.8,30.18,NNE,18,0.0,0.0,96,0.00,,---,0.00,VWS V14.01,2013-03-15 06:17:00,
2013-03-15 02:23:00,37.8,36.8,30.18,NNE,18,0.0,0.0,96,0.00,,---,0.00,VWS V14.01,2013-03-15 06:23:00,
2013-03-15 02:28:00,37.6,36.6,30.18,NNE,18,0.0,0.0,96,0.00,,---,0.00,VWS V14.01,2013-03-15 06:28:00,
2013-03-15 02:30:00,37.6,36.8,30.17,NNE,18,0.0,0.0,97,0.00,,---,0.00,VWS V14.01,2013-03-15 06:30:00,
2013-03-15 02:33:00,37.6,36.8,30.17,NNE,18,0.0,0.0,97,0.00,,---,0.00,VWS V14.01,2013-03-15 06:33:00,
2013-03-15 02:38:00,37.6,36.8,30.17,NNE,18,0.0,0.0,97,0.00,,---,0.00,VWS V14.01,2013-03-15 06:38:00,
2013-03-15 02:43:00,37.5,36.7,30.17,NNE,18,0.0,0.0,97,0.00,,---,0.00,VWS V14.01,2013-03-15 06:43:00,
2013-03-15 02:48:00,37.6,36.8,30.17,NNE,18,0.0,0.0,97,0.00,,---,0.00,VWS V14.01,2013-03-15 06:48:00,
2013-03-15 02:53:00,37.6,36.8,30.17,NNE,18,0.0,0.0,97,0.00,,---,0.00,VWS V14.01,2013-03-15 06:53:00,
2013-03-15 02:58:00,37.8,37.0,30.17,NNE,18,0.0,0.0,97,0.00,,---,0.00,VWS V14.01,2013-03-15 06:58:00,
2013-03-15 03:00:00,37.8,37.0,30.16,NNE,18,0.0,0.0,97,0.00,,---,0.00,VWS V14.01,2013-03-15 07:00:00,
2013-03-15 03:04:00,37.8,37.0,30.16,NNE,18,0.0,0.0,97,0.00,,---,0.00,VWS V14.01,2013-03-15 07:04:00,
2013-03-15 03:09:00,37.8,37.0,30.16,NNE,18,0.0,0.0,97,0.00,,---,0.00,VWS V14.01,2013-03-15 07:09:00,
2013-03-15 03:14:00,37.8,37.0,30.16,NNE,18,0.0,0.0,97,0.00,,---,0.00,VWS V14.01,2013-03-15 07:14:00,
2013-03-15 03:19:00,37.6,36.8,30.16,NNE,18,0.0,0.0,97,0.00,,---,0.00,VWS V14.01,2013-03-15 07:19:00,
2013-03-15 03:24:00,37.6,36.8,30.16,NNE,18,0.0,0.0,97,0.00,,---,0.00,VWS V14.01,2013-03-15 07:24:00,
2013-03-15 03:29:00,37.6,36.8,30.16,NNE,18,0.0,0.0,97,0.00,,---,0.00,VWS V14.01,2013-03-15 07:29:00,
2013-03-15 03:30:00,37.6,36.8,30.15,NNE,18,0.0,0.0,97,0.00,,---,0.00,VWS V14.01,2013-03-15 07:30:00,
2013-03-15 03:34:00,37.6,36.8,30.15,NNE,18,0.0,0.0,97,0.00,,---,0.00,VWS V14.01,2013-03-15 07:34:00,
2013-03-15 03:39:00,37.8,37.3,30.15,NNE,18,0.0,0.0,98,0.00,,---,0.00,VWS V14.01,2013-03-15 07:39:00,
2013-03-15 03:44:00,37.8,37.0,30.15,NNE,18,0.0,0.0,97,0.00,,---,0.00,VWS V14.01,2013-03-15 07:44:00,
2013-03-15 03:49:00,37.6,36.8,30.15,NNE,18,0.0,0.0,97,0.00,,---,0.00,VWS V14.01,2013-03-15 07:49:00,
2013-03-15 03:54:00,37.6,36.8,30.15,NNE,18,0.0,0.0,97,0.00,,---,0.00,VWS V14.01,2013-03-15 07:54:00,
2013-03-15 03:59:00,37.5,36.7,30.14,NNE,18,0.0,0.0,97,0.00,,---,0.00,VWS V14.01,2013-03-15 07:59:00,
2013-03-15 04:00:00,37.5,36.7,30.14,NNE,18,0.0,0.0,97,0.00,,---,0.00,VWS V14.01,2013-03-15 08:00:00,
2013-03-15 04:04:00,37.5,37.0,30.14,NNE,18,0.0,0.0,98,0.00,,---,0.00,VWS V14.01,2013-03-15 08:04:00,
2013-03-15 04:09:00,37.3,36.5,30.14,NNE,18,0.0,0.0,97,0.00,,---,0.00,VWS V14.01,2013-03-15 08:09:00,
2013-03-15 04:14:00,37.3,36.8,30.14,NNE,18,0.0,0.0,98,0.00,,---,0.00,VWS V14.01,2013-03-15 08:14:00,
2013-03-15 04:19:00,37.3,36.8,30.14,NNE,18,0.0,0.0,98,0.00,,---,0.00,VWS V14.01,2013-03-15 08:19:00,
2013-03-15 04:24:00,37.3,36.8,30.14,NNE,18,0.0,0.0,98,0.00,,---,0.00,VWS V14.01,2013-03-15 08:24:00,
2013-03-15 04:30:00,37.5,37.0,30.14,NNE,18,0.0,0.0,98,0.00,,---,0.00,VWS V14.01,2013-03-15 08:30:00,
2013-03-15 04:35:00,37.5,37.0,30.14,NNE,18,0.0,0.0,98,0.00,,---,0.00,VWS V14.01,2013-03-15 08:35:00,
2013-03-15 04:40:00,37.5,37.0,30.14,NNE,18,0.0,0.0,98,0.00,,---,0.00,VWS V14.01,2013-03-15 08:40:00,
2013-03-15 04:45:00,37.3,36.8,30.14,NNE,18,0.0,0.0,98,0.00,,---,0.00,VWS V14.01,2013-03-15 08:45:00,
2013-03-15 04:50:00,37.2,36.7,30.14,NNE,18,0.0,0.0,98,0.00,,---,0.00,VWS V14.01,2013-03-15 08:50:00,
2013-03-15 04:55:00,37.2,36.7,30.14,NNE,18,0.0,0.0,98,0.00,,---,0.00,VWS V14.01,2013-03-15 08:55:00,
2013-03-15 05:00:00,37.2,36.7,30.14,NNE,18,0.0,0.0,98,0.00,,---,0.00,VWS V14.01,2013-03-15 09:00:00,
2013-03-15 05:05:00,37.0,36.5,30.14,NNE,18,0.0,0.0,98,0.00,,---,0.00,VWS V14.01,2013-03-15 09:05:00,
2013-03-15 05:10:00,36.9,36.4,30.14,NNE,18,0.0,0.0,98,0.00,,---,0.00,VWS V14.01,2013-03-15 09:10:00,
2013-03-15 05:15:00,36.8,36.3,30.14,NNE,18,0.0,0.0,98,0.00,,---,0.00,VWS V14.01,2013-03-15 09:15:00,
2013-03-15 05:20:00,36.8,36.3,30.14,NNE,18,0.0,0.0,98,0.00,,---,0.00,VWS V14.01,2013-03-15 09:20:00,
2013-03-15 05:25:00,36.8,36.5,30.14,NNE,18,0.0,0.0,99,0.00,,---,0.00,VWS V14.01,2013-03-15 09:25:00,
2013-03-15 05:30:00,36.9,36.7,30.13,NNE,18,0.0,0.0,99,0.00,,---,0.00,VWS V14.01,2013-03-15 09:30:00,
2013-03-15 05:35:00,36.9,36.4,30.13,NNE,18,0.0,0.0,98,0.00,,---,0.00,VWS V14.01,2013-03-15 09:35:00,
2013-03-15 05:40:00,36.8,36.3,30.13,NNE,18,0.0,0.0,98,0.00,,---,0.00,VWS V14.01,2013-03-15 09:40:00,
2013-03-15 05:45:00,36.6,36.1,30.14,NNE,18,0.0,0.0,98,0.00,,---,0.00,VWS V14.01,2013-03-15 09:45:00,
2013-03-15 05:50:00,36.6,36.3,30.14,NNE,18,0.0,0.0,99,0.00,,---,0.00,VWS V14.01,2013-03-15 09:50:00,
2013-03-15 05:55:00,36.5,36.2,30.14,NNE,18,0.0,0.0,99,0.00,,---,0.00,VWS V14.01,2013-03-15 09:55:00,
2013-03-15 06:00:00,36.5,36.2,30.15,NNE,18,0.0,0.0,99,0.00,,---,0.00,VWS V14.01,2013-03-15 10:00:00,
2013-03-15 06:01:00,36.5,36.2,30.15,NNE,18,0.0,0.0,99,0.00,,---,0.00,VWS V14.01,2013-03-15 10:01:00,
2013-03-15 06:06:00,36.3,36.0,30.15,NNE,18,0.0,0.0,99,0.00,,---,0.00,VWS V14.01,2013-03-15 10:06:00,
2013-03-15 06:11:00,36.2,36.0,30.15,NNE,18,0.0,0.0,99,0.00,,---,0.00,VWS V14.01,2013-03-15 10:11:00,
2013-03-15 06:16:00,36.2,36.0,30.15,NNE,18,0.0,0.0,99,0.00,,---,0.00,VWS V14.01,2013-03-15 10:16:00,
2013-03-15 06:21:00,36.0,35.8,30.15,NNE,18,0.0,0.0,99,0.00,,---,0.00,VWS V14.01,2013-03-15 10:21:00,
2013-03-15 06:26:00,36.0,35.8,30.15,NNE,18,0.0,0.0,99,0.00,,---,0.00,VWS V14.01,2013-03-15 10:26:00,
2013-03-15 06:30:00,35.9,35.7,30.16,NNE,18,0.0,0.0,99,0.00,,---,0.00,VWS V14.01,2013-03-15 10:30:00,
2013-03-15 06:31:00,35.9,35.7,30.16,NNE,18,0.0,0.0,99,0.00,,---,0.00,VWS V14.01,2013-03-15 10:31:00,
2013-03-15 06:36:00,35.9,35.7,30.16,NNE,18,0.0,0.0,99,0.00,,---,0.00,VWS V14.01,2013-03-15 10:36:00,
2013-03-15 06:41:00,36.0,35.8,30.16,NNE,18,0.0,0.0,99,0.00,,---,0.00,VWS V14.01,2013-03-15 10:41:00,
2013-03-15 06:46:00,35.9,35.7,30.16,NNE,18,0.0,0.0,99,0.00,,---,0.00,VWS V14.01,2013-03-15 10:46:00,
2013-03-15 06:52:00,35.9,35.7,30.16,NNE,18,0.0,0.0,99,0.00,,---,0.00,VWS V14.01,2013-03-15 10:52:00,
2013-03-15 06:57:00,35.9,35.7,30.16,NNE,18,0.0,0.0,99,0.00,,---,0.00,VWS V14.01,2013-03-15 10:57:00,
2013-03-15 07:00:00,36.0,35.8,30.17,NNE,18,0.0,0.0,99,0.00,,---,0.00,VWS V14.01,2013-03-15 11:00:00,
2013-03-15 07:02:00,36.0,35.8,30.17,NNE,18,0.0,0.0,99,0.00,,---,0.00,VWS V14.01,2013-03-15 11:02:00,
2013-03-15 07:07:00,36.0,35.8,30.17,NNE,18,0.0,0.0,99,0.00,,---,0.00,VWS V14.01,2013-03-15 11:07:00,
2013-03-15 07:12:00,36.0,35.8,30.17,NNE,18,0.0,0.0,99,0.00,,---,0.00,VWS V14.01,2013-03-15 11:12:00,
2013-03-15 07:17:00,35.9,35.7,30.17,NNE,18,0.0,0.0,99,0.00,,---,0.00,VWS V14.01,2013-03-15 11:17:00,
2013-03-15 07:22:00,36.0,35.8,30.17,NNE,18,0.0,0.0,99,0.00,,---,0.00,VWS V14.01,2013-03-15 11:22:00,
2013-03-15 07:27:00,36.3,36.3,30.17,NNE,18,0.0,0.0,100,0.00,,---,0.00,VWS V14.01,2013-03-15 11:27:00,
2013-03-15 07:30:00,36.3,36.0,30.17,NNE,18,0.0,0.0,99,0.00,,---,0.00,VWS V14.01,2013-03-15 11:30:00,
2013-03-15 07:32:00,36.3,36.0,30.17,NNE,18,0.0,0.0,99,0.00,,---,0.00,VWS V14.01,2013-03-15 11:32:00,
2013-03-15 07:37:00,36.2,36.0,30.17,NNE,18,0.0,0.0,99,0.00,,---,0.00,VWS V14.01,2013-03-15 11:37:00,
2013-03-15 07:42:00,36.2,36.0,30.17,NNE,18,0.0,0.0,99,0.00,,---,0.00,VWS V14.01,2013-03-15 11:42:00,
2013-03-15 07:47:00,36.0,35.8,30.18,NNE,18,0.0,0.0,99,0.00,,---,0.00,VWS V14.01,2013-03-15 11:47:00,
2013-03-15 07:52:00,35.9,35.7,30.18,NNE,18,0.0,0.0,99,0.00,,---,0.00,VWS V14.01,2013-03-15 11:52:00,
2013-03-15 07:57:00,36.0,35.8,30.18,NNE,18,0.0,0.0,99,0.00,,---,0.00,VWS V14.01,2013-03-15 11:57:00,
2013-03-15 08:00:00,36.0,35.8,30.18,NNE,18,0.0,0.0,99,0.00,,---,0.00,VWS V14.01,2013-03-15 12:00:00,
2013-03-15 08:02:00,36.0,35.8,30.18,NNE,18,0.0,0.0,99,0.00,,---,0.00,VWS V14.01,2013-03-15 12:02:00,
2013-03-15 08:07:00,36.0,35.8,30.18,NNE,18,0.0,0.0,99,0.00,,---,0.00,VWS V14.01,2013-03-15 12:07:00,
2013-03-15 08:12:00,36.5,36.5,30.18,NNE,18,0.0,0.0,100,0.00,,---,0.00,VWS V14.01,2013-03-15 12:12:00,
2013-03-15 08:18:00,36.9,36.9,30.18,NNE,18,0.0,0.0,100,0.00,,---,0.00,VWS V14.01,2013-03-15 12:18:00,
2013-03-15 08:23:00,37.5,37.5,30.18,NNE,18,0.0,0.0,100,0.00,,---,0.00,VWS V14.01,2013-03-15 12:23:00,
2013-03-15 08:28:00,37.9,37.9,30.18,NNE,18,0.0,0.0,100,0.00,,---,0.00,VWS V14.01,2013-03-15 12:28:00,
2013-03-15 08:30:00,37.9,37.9,30.19,NNE,18,0.0,0.0,100,0.00,,---,0.00,VWS V14.01,2013-03-15 12:30:00,
2013-03-15 08:33:00,38.2,38.2,30.19,NNE,18,0.0,0.0,100,0.00,,---,0.00,VWS V14.01,2013-03-15 12:33:00,
2013-03-15 08:38:00,38.8,38.8,30.19,NNE,18,0.0,0.0,100,0.00,,---,0.00,VWS V14.01,2013-03-15 12:38:00,
2013-03-15 08:43:00,39.2,39.2,30.19,NNE,18,0.0,0.0,100,0.00,,---,0.00,VWS V14.01,2013-03-15 12:43:00,
2013-03-15 08:48:00,39.3,39.3,30.19,NNE,18,0.0,0.0,100,0.00,,---,0.00,VWS V14.01,2013-03-15 12:48:00,
2013-03-15 08:53:00,39.6,39.6,30.19,NNE,18,0.0,0.0,100,0.00,,---,0.00,VWS V14.01,2013-03-15 12:53:00,
2013-03-15 08:58:00,40.2,40.2,30.19,NNE,18,0.0,0.0,100,0.00,,---,0.00,VWS V14.01,2013-03-15 12:58:00,
2013-03-15 09:00:00,40.5,40.5,30.19,NNE,18,0.0,0.0,100,0.00,,---,0.00,VWS V14.01,2013-03-15 13:00:00,
2013-03-15 09:03:00,40.9,40.9,30.19,NNE,18,0.0,0.0,100,0.00,,---,0.00,VWS V14.01,2013-03-15 13:03:00,
2013-03-15 09:08:00,41.5,41.0,30.19,NNE,18,0.0,0.0,98,0.00,,---,0.00,VWS V14.01,2013-03-15 13:08:00,
2013-03-15 09:13:00,42.3,41.0,30.19,NNE,18,0.0,0.0,95,0.00,,---,0.00,VWS V14.01,2013-03-15 13:13:00,
2013-03-15 09:18:00,43.2,39.6,30.19,NNE,18,0.0,0.0,87,0.00,,---,0.00,VWS V14.01,2013-03-15 13:18:00,
2013-03-15 09:23:00,44.1,39.0,30.19,NNE,18,0.0,0.0,82,0.00,,---,0.00,VWS V14.01,2013-03-15 13:23:00,
2013-03-15 09:29:00,45.1,39.0,30.19,NNE,18,0.0,0.0,79,0.00,,---,0.00,VWS V14.01,2013-03-15 13:29:00,
2013-03-15 09:30:00,45.4,39.0,30.20,NNE,18,0.0,0.0,78,0.00,,---,0.00,VWS V14.01,2013-03-15 13:30:00,
2013-03-15 09:34:00,46.0,38.5,30.20,NNE,18,0.0,0.0,75,0.00,,---,0.00,VWS V14.01,2013-03-15 13:34:00,
2013-03-15 09:38:00,47.0,36.6,30.20,North,357,0.0,0.0,67,0.00,,---,0.00,VWS V14.01,2013-03-15 13:38:00,
2013-03-15 09:44:00,48.2,36.6,30.20,WNW,289,0.0,0.0,64,0.00,,---,0.00,VWS V14.01,2013-03-15 13:44:00,
2013-03-15 09:49:00,49.2,36.3,30.20,WNW,289,0.0,0.0,61,0.00,,---,0.00,VWS V14.01,2013-03-15 13:49:00,
2013-03-15 09:54:00,49.9,36.6,30.20,WNW,289,0.0,0.0,60,0.00,,---,0.00,VWS V14.01,2013-03-15 13:54:00,
2013-03-15 09:59:00,50.7,36.5,30.20,WNW,289,0.0,0.0,58,0.00,,---,0.00,VWS V14.01,2013-03-15 13:59:00,
2013-03-15 10:00:00,50.8,36.1,30.20,WNW,289,0.0,0.0,57,0.00,,---,0.00,VWS V14.01,2013-03-15 14:00:00,
2013-03-15 10:04:00,51.3,34.8,30.20,WNW,289,0.0,0.0,53,0.00,,---,0.00,VWS V14.01,2013-03-15 14:04:00,
2013-03-15 10:09:00,52.2,35.1,30.20,WNW,289,0.0,0.0,52,0.00,,---,0.00,VWS V14.01,2013-03-15 14:09:00,
2013-03-15 10:14:00,53.1,32.9,30.20,WNW,289,0.0,0.0,46,0.00,,---,0.00,VWS V14.01,2013-03-15 14:14:00,
2013-03-15 10:19:00,53.6,32.2,30.20,WNW,289,0.0,0.0,44,0.00,,---,0.00,VWS V14.01,2013-03-15 14:19:00,
2013-03-15 10:24:00,54.4,33.5,30.20,WNW,289,0.0,0.0,45,0.00,,---,0.00,VWS V14.01,2013-03-15 14:24:00,
2013-03-15 10:29:00,55.1,30.6,30.20,WSW,240,0.0,2.0,39,0.00,,---,0.00,VWS V14.01,2013-03-15 14:29:00,
2013-03-15 10:30:00,55.1,30.6,30.20,WSW,240,0.0,2.0,39,0.00,,---,0.00,VWS V14.01,2013-03-15 14:30:00,
2013-03-15 10:34:00,55.9,27.2,30.20,WSW,244,0.0,0.0,33,0.00,,---,0.00,VWS V14.01,2013-03-15 14:34:00,
2013-03-15 10:40:00,56.3,28.3,30.20,NNW,347,0.0,0.0,34,0.00,,---,0.00,VWS V14.01,2013-03-15 14:40:00,
2013-03-15 10:44:00,56.7,27.9,30.20,NNW,347,0.0,0.0,33,0.00,,---,0.00,VWS V14.01,2013-03-15 14:44:00,
2013-03-15 10:50:00,57.0,27.5,30.20,North,359,0.0,3.0,32,0.00,,---,0.00,VWS V14.01,2013-03-15 14:50:00,
2013-03-15 10:55:00,57.2,24.4,30.20,North,357,0.0,3.0,28,0.00,,---,0.00,VWS V14.01,2013-03-15 14:55:00,
2013-03-15 11:00:00,57.5,28.6,30.19,North,357,0.0,3.0,33,0.00,,---,0.00,VWS V14.01,2013-03-15 15:00:00,
2013-03-15 11:05:00,58.1,26.9,30.19,West,272,1.0,3.0,30,0.00,,---,0.00,VWS V14.01,2013-03-15 15:05:00,
2013-03-15 11:10:00,58.6,27.3,30.19,WNW,282,0.0,3.0,30,0.00,,---,0.00,VWS V14.01,2013-03-15 15:10:00,
2013-03-15 11:15:00,58.7,27.4,30.19,WNW,301,0.0,3.0,30,0.00,,---,0.00,VWS V14.01,2013-03-15 15:15:00,
2013-03-15 11:20:00,59.0,27.6,30.19,WNW,294,0.0,5.0,30,0.00,,---,0.00,VWS V14.01,2013-03-15 15:20:00,
2013-03-15 11:25:00,59.6,28.1,30.19,West,272,1.0,5.0,30,0.00,,---,0.00,VWS V14.01,2013-03-15 15:25:00,
2013-03-15 11:30:00,59.6,29.7,30.19,WSW,243,0.0,0.0,32,0.00,,---,0.00,VWS V14.01,2013-03-15 15:30:00,
2013-03-15 11:35:00,60.1,30.9,30.19,West,277,0.0,1.0,33,0.00,,---,0.00,VWS V14.01,2013-03-15 15:35:00,
2013-03-15 11:40:00,60.9,31.6,30.19,West,277,0.0,1.0,33,0.00,,---,0.00,VWS V14.01,2013-03-15 15:40:00,
2013-03-15 11:45:00,61.8,31.6,30.18,West,277,0.0,1.0,32,0.00,,---,0.00,VWS V14.01,2013-03-15 15:45:00,
2013-03-15 11:50:00,62.1,31.9,30.18,NW,320,0.0,1.0,32,0.00,,---,0.00,VWS V14.01,2013-03-15 15:50:00,
2013-03-15 11:55:00,62.3,32.9,30.18,NW,326,0.0,1.0,33,0.00,,---,0.00,VWS V14.01,2013-03-15 15:55:00,
2013-03-15 12:00:00,62.6,33.9,30.18,West,275,0.0,1.0,34,0.00,,---,0.00,VWS V14.01,2013-03-15 16:00:00,
2013-03-15 12:01:00,62.6,33.9,30.18,North,3,0.0,0.0,34,0.00,,---,0.00,VWS V14.01,2013-03-15 16:01:00,
2013-03-15 12:06:00,62.7,34.0,30.18,North,359,0.0,3.0,34,0.00,,---,0.00,VWS V14.01,2013-03-15 16:06:00,
2013-03-15 12:11:00,63.1,35.0,30.18,North,359,0.0,3.0,35,0.00,,---,0.00,VWS V14.01,2013-03-15 16:11:00,
2013-03-15 12:16:00,63.7,32.5,30.18,West,268,0.0,6.0,31,0.00,,---,0.00,VWS V14.01,2013-03-15 16:16:00,
2013-03-15 12:21:00,64.0,34.3,30.18,North,359,0.0,6.0,33,0.00,,---,0.00,VWS V14.01,2013-03-15 16:21:00,
2013-03-15 12:26:00,64.7,34.2,30.18,North,359,0.0,6.0,32,0.00,,---,0.00,VWS V14.01,2013-03-15 16:26:00,
2013-03-15 12:30:00,64.8,34.3,30.17,North,357,0.0,6.0,32,0.00,,---,0.00,VWS V14.01,2013-03-15 16:30:00,
2013-03-15 12:32:00,65.0,34.5,30.17,North,359,0.0,0.0,32,0.00,,---,0.00,VWS V14.01,2013-03-15 16:32:00,
2013-03-15 12:37:00,65.5,35.7,30.17,North,359,0.0,0.0,33,0.00,,---,0.00,VWS V14.01,2013-03-15 16:37:00,
2013-03-15 12:42:00,66.1,33.8,30.17,West,275,0.0,5.0,30,0.00,,---,0.00,VWS V14.01,2013-03-15 16:42:00,
2013-03-15 12:47:00,66.6,35.0,30.17,West,274,0.0,5.0,31,0.00,,---,0.00,VWS V14.01,2013-03-15 16:47:00,
2013-03-15 12:52:00,66.6,33.4,30.17,West,260,1.0,5.0,29,0.00,,---,0.00,VWS V14.01,2013-03-15 16:52:00,
2013-03-15 12:57:00,66.3,34.0,30.17,SSE,154,0.0,5.0,30,0.00,,---,0.00,VWS V14.01,2013-03-15 16:57:00,
2013-03-15 13:00:00,66.1,35.4,30.16,SW,215,0.0,5.0,32,0.00,,---,0.00,VWS V14.01,2013-03-15 17:00:00,
2013-03-15 13:02:00,66.4,34.9,30.16,WSW,241,0.0,0.0,31,0.00,,---,0.00,VWS V14.01,2013-03-15 17:02:00,
2013-03-15 13:07:00,67.3,34.8,30.16,WSW,251,0.0,0.0,30,0.00,,---,0.00,VWS V14.01,2013-03-15 17:07:00,
2013-03-15 13:12:00,67.4,35.7,30.16,West,274,4.0,4.0,31,0.00,,---,0.00,VWS V14.01,2013-03-15 17:12:00,
2013-03-15 13:17:00,67.1,34.7,30.15,West,278,0.0,6.0,30,0.00,,---,0.00,VWS V14.01,2013-03-15 17:17:00,
2013-03-15 13:22:00,66.6,34.2,30.15,West,281,0.0,6.0,30,0.00,,---,0.00,VWS V14.01,2013-03-15 17:22:00,
2013-03-15 13:27:00,67.3,35.7,30.15,West,277,2.0,6.0,31,0.00,,---,0.00,VWS V14.01,2013-03-15 17:27:00,
2013-03-15 13:30:00,67.3,36.5,30.14,NNW,330,2.0,6.0,32,0.00,,---,0.00,VWS V14.01,2013-03-15 17:30:00,
2013-03-15 13:33:00,66.9,35.3,30.14,West,270,0.0,9.0,31,0.00,,---,0.00,VWS V14.01,2013-03-15 17:33:00,
2013-03-15 13:37:00,66.9,34.5,30.14,West,271,2.0,9.0,30,0.00,,---,0.00,VWS V14.01,2013-03-15 17:37:00,
2013-03-15 13:43:00,67.4,34.9,30.14,NNW,347,0.0,9.0,30,0.00,,---,0.00,VWS V14.01,2013-03-15 17:43:00,
2013-03-15 13:48:00,67.8,34.4,30.13,South,175,0.0,9.0,29,0.00,,---,0.00,VWS V14.01,2013-03-15 17:48:00,
2013-03-15 13:53:00,68.1,35.5,30.13,SW,219,0.0,9.0,30,0.00,,---,0.00,VWS V14.01,2013-03-15 17:53:00,
2013-03-15 13:58:00,68.4,35.8,30.13,NNW,344,0.0,9.0,30,0.00,,---,0.00,VWS V14.01,2013-03-15 17:58:00,
2013-03-15 14:00:00,68.8,36.1,30.13,WNW,298,0.0,9.0,30,0.00,,---,0.00,VWS V14.01,2013-03-15 18:00:00,
2013-03-15 14:03:00,68.8,39.3,30.13,SE,140,0.0,4.0,34,0.00,,---,0.00,VWS V14.01,2013-03-15 18:03:00,
2013-03-15 14:08:00,67.6,39.0,30.13,SE,145,0.0,6.0,35,0.00,,---,0.00,VWS V14.01,2013-03-15 18:08:00,
2013-03-15 14:13:00,67.1,39.3,30.13,East,100,0.0,6.0,36,0.00,,---,0.00,VWS V14.01,2013-03-15 18:13:00,
2013-03-15 14:18:00,67.4,40.9,30.12,SE,145,0.0,6.0,38,0.00,,---,0.00,VWS V14.01,2013-03-15 18:18:00,
2013-03-15 14:23:00,67.6,41.1,30.12,ENE,66,0.0,6.0,38,0.00,,---,0.00,VWS V14.01,2013-03-15 18:23:00,
2013-03-15 14:28:00,67.8,41.3,30.12,SSE,162,0.0,6.0,38,0.00,,---,0.00,VWS V14.01,2013-03-15 18:28:00,
2013-03-15 14:30:00,67.8,40.6,30.11,SE,138,0.0,6.0,37,0.00,,---,0.00,VWS V14.01,2013-03-15 18:30:00,
2013-03-15 14:33:00,67.6,41.8,30.11,SSE,150,0.0,2.0,39,0.00,,---,0.00,VWS V14.01,2013-03-15 18:33:00,
2013-03-15 14:38:00,68.3,41.0,30.11,SSE,150,0.0,2.0,37,0.00,,---,0.00,VWS V14.01,2013-03-15 18:38:00,
2013-03-15 14:43:00,68.4,41.1,30.11,SSE,148,0.0,2.0,37,0.00,,---,0.00,VWS V14.01,2013-03-15 18:43:00,
2013-03-15 14:48:00,68.8,40.8,30.10,SE,134,0.0,2.0,36,0.00,,---,0.00,VWS V14.01,2013-03-15 18:48:00,
2013-03-15 14:53:00,68.1,40.2,30.10,SSE,165,0.0,3.0,36,0.00,,---,0.00,VWS V14.01,2013-03-15 18:53:00,
2013-03-15 14:58:00,67.8,40.6,30.10,ESE,117,0.0,3.0,37,0.00,,---,0.00,VWS V14.01,2013-03-15 18:58:00,
2013-03-15 15:00:00,67.8,40.6,30.10,ESE,117,0.0,3.0,37,0.00,,---,0.00,VWS V14.01,2013-03-15 19:00:00,
2013-03-15 15:04:00,67.9,41.4,30.10,SSE,150,0.0,0.0,38,0.00,,---,0.00,VWS V14.01,2013-03-15 19:04:00,
2013-03-15 15:09:00,68.1,42.2,30.10,ESE,109,0.0,2.0,39,0.00,,---,0.00,VWS V14.01,2013-03-15 19:09:00,
2013-03-15 15:14:00,68.3,41.7,30.10,SE,144,0.0,6.0,38,0.00,,---,0.00,VWS V14.01,2013-03-15 19:14:00,
2013-03-15 15:19:00,68.6,41.3,30.09,SSE,151,0.0,6.0,37,0.00,,---,0.00,VWS V14.01,2013-03-15 19:19:00,
2013-03-15 15:24:00,68.8,42.2,30.09,SSE,154,0.0,6.0,38,0.00,,---,0.00,VWS V14.01,2013-03-15 19:24:00,
2013-03-15 15:29:00,68.4,42.5,30.08,ESE,114,0.0,6.0,39,0.00,,---,0.00,VWS V14.01,2013-03-15 19:29:00,
2013-03-15 15:30:00,68.6,42.0,30.08,ESE,107,0.0,6.0,38,0.00,,---,0.00,VWS V14.01,2013-03-15 19:30:00,
2013-03-15 15:34:00,69.3,41.9,30.08,ESE,119,0.0,1.0,37,0.00,,---,0.00,VWS V14.01,2013-03-15 19:34:00,
2013-03-15 15:39:00,69.1,43.1,30.08,ESE,103,1.0,3.0,39,0.00,,---,0.00,VWS V14.01,2013-03-15 19:39:00,
2013-03-15 15:44:00,69.1,42.5,30.07,ENE,69,0.0,3.0,38,0.00,,---,0.00,VWS V14.01,2013-03-15 19:44:00,
2013-03-15 15:49:00,69.1,42.5,30.07,SSE,148,0.0,3.0,38,0.00,,---,0.00,VWS V14.01,2013-03-15 19:49:00,
2013-03-15 15:54:00,69.4,42.0,30.07,ESE,119,0.0,3.0,37,0.00,,---,0.00,VWS V14.01,2013-03-15 19:54:00,
2013-03-15 16:00:00,69.1,44.4,30.07,SSE,164,0.0,3.0,41,0.00,,---,0.00,VWS V14.01,2013-03-15 20:00:00,
2013-03-15 16:05:00,69.3,42.6,30.07,SSE,152,0.0,0.0,38,0.00,,---,0.00,VWS V14.01,2013-03-15 20:05:00,
2013-03-15 16:10:00,69.4,42.7,30.07,North,8,0.0,2.0,38,0.00,,---,0.00,VWS V14.01,2013-03-15 20:10:00,
2013-03-15 16:15:00,69.3,44.0,30.06,SE,143,0.0,2.0,40,0.00,,---,0.00,VWS V14.01,2013-03-15 20:15:00,
2013-03-15 16:20:00,69.4,44.1,30.06,NNE,25,0.0,2.0,40,0.00,,---,0.00,VWS V14.01,2013-03-15 20:20:00,
2013-03-15 16:25:00,69.8,43.8,30.06,South,181,0.0,2.0,39,0.00,,---,0.00,VWS V14.01,2013-03-15 20:25:00,
2013-03-15 16:30:00,69.8,43.8,30.05,ENE,66,0.0,0.0,39,0.00,,---,0.00,VWS V14.01,2013-03-15 20:30:00,
2013-03-15 16:35:00,69.3,44.0,30.05,SE,137,0.0,3.0,40,0.00,,---,0.00,VWS V14.01,2013-03-15 20:35:00,
2013-03-15 16:40:00,68.9,43.0,30.05,North,4,0.0,3.0,39,0.00,,---,0.00,VWS V14.01,2013-03-15 20:40:00,
2013-03-15 16:45:00,68.8,43.5,30.05,East,79,0.0,3.0,40,0.00,,---,0.00,VWS V14.01,2013-03-15 20:45:00,
2013-03-15 16:50:00,68.6,44.0,30.05,SSE,162,0.0,3.0,41,0.00,,---,0.00,VWS V14.01,2013-03-15 20:50:00,
2013-03-15 16:55:00,68.6,44.6,30.05,ESE,123,0.0,5.0,42,0.00,,---,0.00,VWS V14.01,2013-03-15 20:55:00,
2013-03-15 17:00:00,68.4,45.0,30.05,South,191,0.0,5.0,43,0.00,,---,0.00,VWS V14.01,2013-03-15 21:00:00,
2013-03-15 17:01:00,68.3,44.3,30.05,South,191,0.0,0.0,42,0.00,,---,0.00,VWS V14.01,2013-03-15 21:01:00,
2013-03-15 17:06:00,68.1,44.2,30.05,SE,128,0.0,2.0,42,0.00,,---,0.00,VWS V14.01,2013-03-15 21:06:00,
2013-03-15 17:11:00,67.3,44.7,30.05,ESE,117,2.0,3.0,44,0.00,,---,0.00,VWS V14.01,2013-03-15 21:11:00,
2013-03-15 17:16:00,67.4,44.2,30.04,ENE,66,0.0,3.0,43,0.00,,---,0.00,VWS V14.01,2013-03-15 21:16:00,
2013-03-15 17:21:00,68.1,44.2,30.04,ESE,109,0.0,3.0,42,0.00,,---,0.00,VWS V14.01,2013-03-15 21:21:00,
2013-03-15 17:26:00,67.6,44.3,30.04,ESE,107,0.0,3.0,43,0.00,,---,0.00,VWS V14.01,2013-03-15 21:26:00,
2013-03-15 17:30:00,67.6,44.9,30.04,SE,145,0.0,4.0,44,0.00,,---,0.00,VWS V14.01,2013-03-15 21:30:00,
2013-03-15 17:31:00,67.6,44.3,30.04,SE,145,0.0,1.0,43,0.00,,---,0.00,VWS V14.01,2013-03-15 21:31:00,
2013-03-15 17:36:00,67.8,44.5,30.04,SSW,206,2.0,2.0,43,0.00,,---,0.00,VWS V14.01,2013-03-15 21:36:00,
2013-03-15 17:41:00,67.3,44.7,30.04,SE,137,0.0,3.0,44,0.00,,---,0.00,VWS V14.01,2013-03-15 21:41:00,
2013-03-15 17:46:00,66.9,44.3,30.04,SE,131,1.0,3.0,44,0.00,,---,0.00,VWS V14.01,2013-03-15 21:46:00,
2013-03-15 17:51:00,66.3,44.9,30.04,SE,138,0.0,3.0,46,0.00,,---,0.00,VWS V14.01,2013-03-15 21:51:00,
2013-03-15 17:56:00,65.6,44.8,30.04,ESE,116,0.0,3.0,47,0.00,,---,0.00,VWS V14.01,2013-03-15 21:56:00,
2013-03-15 18:00:00,65.0,44.8,30.04,SE,126,0.0,5.0,48,0.00,,---,0.00,VWS V14.01,2013-03-15 22:00:00,
2013-03-15 18:01:00,65.0,44.8,30.04,SE,126,0.0,0.0,48,0.00,,---,0.00,VWS V14.01,2013-03-15 22:01:00,
2013-03-15 18:06:00,64.8,45.7,30.04,ESE,110,0.0,6.0,50,0.00,,---,0.00,VWS V14.01,2013-03-15 22:06:00,
2013-03-15 18:11:00,64.7,45.7,30.04,ESE,110,0.0,6.0,50,0.00,,---,0.00,VWS V14.01,2013-03-15 22:11:00,
2013-03-15 18:17:00,64.5,45.5,30.04,East,93,0.0,6.0,50,0.00,,---,0.00,VWS V14.01,2013-03-15 22:17:00,
2013-03-15 18:22:00,64.5,46.0,30.04,East,95,0.0,6.0,51,0.00,,---,0.00,VWS V14.01,2013-03-15 22:22:00,
2013-03-15 18:27:00,64.0,45.5,30.04,ESE,120,0.0,6.0,51,0.00,,---,0.00,VWS V14.01,2013-03-15 22:27:00,
2013-03-15 18:30:00,63.9,45.4,30.04,SE,128,0.0,6.0,51,0.00,,---,0.00,VWS V14.01,2013-03-15 22:30:00,
2013-03-15 18:32:00,63.7,45.8,30.04,SE,128,0.0,0.0,52,0.00,,---,0.00,VWS V14.01,2013-03-15 22:32:00,
2013-03-15 18:37:00,63.7,45.8,30.04,SE,137,0.0,0.0,52,0.00,,---,0.00,VWS V14.01,2013-03-15 22:37:00,
2013-03-15 18:42:00,63.5,46.1,30.04,SE,134,0.0,1.0,53,0.00,,---,0.00,VWS V14.01,2013-03-15 22:42:00,
2013-03-15 18:47:00,63.2,45.8,30.04,East,93,0.0,2.0,53,0.00,,---,0.00,VWS V14.01,2013-03-15 22:47:00,
2013-03-15 18:52:00,62.7,46.3,30.04,East,96,0.0,2.0,55,0.00,,---,0.00,VWS V14.01,2013-03-15 22:52:00,
2013-03-15 18:57:00,62.6,46.2,30.04,ESE,110,0.0,2.0,55,0.00,,---,0.00,VWS V14.01,2013-03-15 22:57:00,
2013-03-15 19:00:00,62.4,45.5,30.04,ESE,110,0.0,2.0,54,0.00,,---,0.00,VWS V14.01,2013-03-15 23:00:00,
2013-03-15 19:03:00,62.3,46.0,30.04,ESE,116,0.0,1.0,55,0.00,,---,0.00,VWS V14.01,2013-03-15 23:03:00,
2013-03-15 19:08:00,62.0,46.1,30.04,ESE,116,0.0,1.0,56,0.00,,---,0.00,VWS V14.01,2013-03-15 23:08:00,
2013-03-15 19:13:00,61.8,46.0,30.04,SE,130,0.0,1.0,56,0.00,,---,0.00,VWS V14.01,2013-03-15 23:13:00,
2013-03-15 19:18:00,61.5,45.7,30.04,SSE,150,0.0,3.0,56,0.00,,---,0.00,VWS V14.01,2013-03-15 23:18:00,
2013-03-15 19:23:00,61.3,46.0,30.04,SSE,150,0.0,3.0,57,0.00,,---,0.00,VWS V14.01,2013-03-15 23:23:00,
2013-03-15 19:28:00,61.0,45.7,30.04,SSE,150,0.0,3.0,57,0.00,,---,0.00,VWS V14.01,2013-03-15 23:28:00,
2013-03-15 19:30:00,61.0,45.7,30.04,SSE,150,0.0,3.0,57,0.00,,---,0.00,VWS V14.01,2013-03-15 23:30:00,
2013-03-15 19:33:00,60.9,45.6,30.04,SE,143,2.0,3.0,57,0.00,,---,0.00,VWS V14.01,2013-03-15 23:33:00,
2013-03-15 19:38:00,60.7,45.4,30.04,SE,140,0.0,3.0,57,0.00,,---,0.00,VWS V14.01,2013-03-15 23:38:00,
2013-03-15 19:43:00,60.4,45.6,30.04,SE,144,0.0,3.0,58,0.00,,---,0.00,VWS V14.01,2013-03-15 23:43:00,
2013-03-15 19:48:00,60.1,45.3,30.04,SE,144,0.0,3.0,58,0.00,,---,0.00,VWS V14.01,2013-03-15 23:48:00,
2013-03-15 19:53:00,59.8,45.5,30.04,SE,144,0.0,3.0,59,0.00,,---,0.00,VWS V14.01,2013-03-15 23:53:00,
2013-03-15 19:58:00,59.5,44.7,30.04,SE,141,0.0,3.0,58,0.00,,---,0.00,VWS V14.01,2013-03-15 23:58:00,
2013-03-15 20:00:00,59.3,45.0,30.05,SE,141,0.0,3.0,59,0.00,,---,0.00,VWS V14.01,2013-03-16 00:00:00,
2013-03-15 20:04:00,59.2,44.9,30.05,SE,141,0.0,0.0,59,0.00,,---,0.00,VWS V14.01,2013-03-16 00:04:00,
2013-03-15 20:09:00,58.9,44.6,30.05,SSE,154,0.0,2.0,59,0.00,,---,0.00,VWS V14.01,2013-03-16 00:09:00,
2013-03-15 20:14:00,58.7,44.4,30.05,SE,130,0.0,2.0,59,0.00,,---,0.00,VWS V14.01,2013-03-16 00:14:00,
2013-03-15 20:19:00,58.6,44.8,30.04,SSE,150,0.0,3.0,60,0.00,,---,0.00,VWS V14.01,2013-03-16 00:19:00,
2013-03-15 20:24:00,58.3,44.5,30.04,SSE,150,0.0,3.0,60,0.00,,---,0.00,VWS V14.01,2013-03-16 00:24:00,
2013-03-15 20:29:00,58.1,44.3,30.04,SSE,150,0.0,3.0,60,0.00,,---,0.00,VWS V14.01,2013-03-16 00:29:00,
2013-03-15 20:30:00,58.1,44.3,30.04,SSE,150,0.0,3.0,60,0.00,,---,0.00,VWS V14.01,2013-03-16 00:30:00,
2013-03-15 20:34:00,58.0,44.6,30.04,ESE,120,0.0,2.0,61,0.00,,---,0.00,VWS V14.01,2013-03-16 00:34:00,
2013-03-15 20:39:00,57.8,44.5,30.04,SSE,160,0.0,4.0,61,0.00,,---,0.00,VWS V14.01,2013-03-16 00:39:00,
2013-03-15 20:44:00,57.6,44.3,30.05,SSE,162,0.0,4.0,61,0.00,,---,0.00,VWS V14.01,2013-03-16 00:44:00,
2013-03-15 20:49:00,57.5,44.6,30.05,SSE,162,0.0,4.0,62,0.00,,---,0.00,VWS V14.01,2013-03-16 00:49:00,
2013-03-15 20:54:00,57.2,44.3,30.05,SSE,162,0.0,4.0,62,0.00,,---,0.00,VWS V14.01,2013-03-16 00:54:00,
2013-03-15 20:59:00,57.2,44.3,30.05,SSE,152,0.0,4.0,62,0.00,,---,0.00,VWS V14.01,2013-03-16 00:59:00,
2013-03-15 21:00:00,57.2,44.3,30.05,SSE,152,0.0,4.0,62,0.00,,---,0.00,VWS V14.01,2013-03-16 01:00:00,
2013-03-15 21:04:00,57.0,44.1,30.05,South,191,0.0,0.0,62,0.00,,---,0.00,VWS V14.01,2013-03-16 01:04:00,
2013-03-15 21:09:00,57.0,44.1,30.05,SSE,154,0.0,5.0,62,0.00,,---,0.00,VWS V14.01,2013-03-16 01:09:00,
2013-03-15 21:14:00,56.9,44.0,30.05,SE,127,0.0,5.0,62,0.00,,---,0.00,VWS V14.01,2013-03-16 01:14:00,
2013-03-15 21:19:00,56.7,43.8,30.05,SE,130,0.0,5.0,62,0.00,,---,0.00,VWS V14.01,2013-03-16 01:19:00,
2013-03-15 21:25:00,56.6,43.8,30.05,SE,136,0.0,5.0,62,0.00,,---,0.00,VWS V14.01,2013-03-16 01:25:00,
2013-03-15 21:30:00,56.5,43.7,30.05,SSE,147,0.0,5.0,62,0.00,,---,0.00,VWS V14.01,2013-03-16 01:30:00,
2013-03-15 21:35:00,56.3,43.9,30.05,SE,145,0.0,0.0,63,0.00,,---,0.00,VWS V14.01,2013-03-16 01:35:00,
2013-03-15 21:40:00,56.2,43.8,30.05,SE,126,0.0,5.0,63,0.00,,---,0.00,VWS V14.01,2013-03-16 01:40:00,
2013-03-15 21:45:00,56.2,43.8,30.06,ESE,120,0.0,5.0,63,0.00,,---,0.00,VWS V14.01,2013-03-16 01:45:00,
2013-03-15 21:50:00,56.2,43.8,30.06,South,175,0.0,5.0,63,0.00,,---,0.00,VWS V14.01,2013-03-16 01:50:00,
2013-03-15 21:55:00,56.0,43.6,30.06,SSW,213,0.0,5.0,63,0.00,,---,0.00,VWS V14.01,2013-03-16 01:55:00,
2013-03-15 22:00:00,55.9,43.5,30.06,SSW,208,0.0,0.0,63,0.00,,---,0.00,VWS V14.01,2013-03-16 02:00:00,
2013-03-15 22:05:00,55.7,43.3,30.06,SE,137,0.0,0.0,63,0.00,,---,0.00,VWS V14.01,2013-03-16 02:05:00,
2013-03-15 22:10:00,55.7,43.3,30.06,SE,137,0.0,0.0,63,0.00,,---,0.00,VWS V14.01,2013-03-16 02:10:00,
2013-03-15 22:16:00,55.4,43.0,30.07,SE,137,0.0,0.0,63,0.00,,---,0.00,VWS V14.01,2013-03-16 02:16:00,
2013-03-15 22:22:00,55.4,43.0,30.07,SE,137,0.0,0.0,63,0.00,,---,0.00,VWS V14.01,2013-03-16 02:22:00,
2013-03-15 22:27:00,55.4,42.6,30.07,SE,137,0.0,0.0,62,0.00,,---,0.00,VWS V14.01,2013-03-16 02:27:00,
2013-03-15 22:30:00,55.4,42.6,30.07,SE,136,0.0,0.0,62,0.00,,---,0.00,VWS V14.01,2013-03-16 02:30:00,
2013-03-15 22:32:00,55.4,42.6,30.07,SE,136,0.0,0.0,62,0.00,,---,0.00,VWS V14.01,2013-03-16 02:32:00,
2013-03-15 22:37:00,55.3,42.5,30.07,SE,136,0.0,0.0,62,0.00,,---,0.00,VWS V14.01,2013-03-16 02:37:00,
2013-03-15 22:42:00,55.1,42.8,30.07,SE,136,0.0,1.0,63,0.00,,---,0.00,VWS V14.01,2013-03-16 02:42:00,
2013-03-15 22:47:00,54.8,42.5,30.07,SE,136,0.0,1.0,63,0.00,,---,0.00,VWS V14.01,2013-03-16 02:47:00,
2013-03-15 22:52:00,54.7,42.8,30.07,SE,136,0.0,1.0,64,0.00,,---,0.00,VWS V14.01,2013-03-16 02:52:00,
2013-03-15 22:57:00,54.5,42.6,30.07,SE,136,0.0,1.0,64,0.00,,---,0.00,VWS V14.01,2013-03-16 02:57:00,
2013-03-15 23:00:00,54.5,42.6,30.07,SE,136,0.0,1.0,64,0.00,,---,0.00,VWS V14.01,2013-03-16 03:00:00,
2013-03-15 23:02:00,54.4,42.5,30.07,SE,136,0.0,0.0,64,0.00,,---,0.00,VWS V14.01,2013-03-16 03:02:00,
2013-03-15 23:07:00,54.2,42.3,30.07,SE,136,0.0,0.0,64,0.00,,---,0.00,VWS V14.01,2013-03-16 03:07:00,
2013-03-15 23:12:00,54.1,42.6,30.07,SE,136,0.0,0.0,65,0.00,,---,0.00,VWS V14.01,2013-03-16 03:12:00,
2013-03-15 23:17:00,53.8,42.3,30.08,SE,136,0.0,0.0,65,0.00,,---,0.00,VWS V14.01,2013-03-16 03:17:00,
2013-03-15 23:22:00,53.5,42.4,30.08,SE,136,0.0,0.0,66,0.00,,---,0.00,VWS V14.01,2013-03-16 03:22:00,
2013-03-15 23:27:00,53.3,42.2,30.08,SE,136,0.0,0.0,66,0.00,,---,0.00,VWS V14.01,2013-03-16 03:27:00,
2013-03-15 23:30:00,53.2,42.5,30.08,SE,136,0.0,0.0,67,0.00,,---,0.00,VWS V14.01,2013-03-16 03:30:00,
2013-03-15 23:32:00,53.2,42.5,30.08,SE,136,0.0,0.0,67,0.00,,---,0.00,VWS V14.01,2013-03-16 03:32:00,
2013-03-15 23:37:00,53.3,42.2,30.08,SE,134,0.0,0.0,66,0.00,,---,0.00,VWS V14.01,2013-03-16 03:37:00,
2013-03-15 23:42:00,53.2,42.2,30.08,SE,134,0.0,0.0,66,0.00,,---,0.00,VWS V14.01,2013-03-16 03:42:00,
2013-03-15 23:47:00,53.1,42.5,30.08,SE,134,0.0,0.0,67,0.00,,---,0.00,VWS V14.01,2013-03-16 03:47:00,
2013-03-15 23:52:00,52.8,42.5,30.08,SE,134,0.0,0.0,68,0.00,,---,0.00,VWS V14.01,2013-03-16 03:52:00,
2013-03-15 23:57:00,52.6,42.3,30.08,SE,134,0.0,0.0,68,0.00,,---,0.00,VWS V14.01,2013-03-16 03:57:00,